sensor_id;sensor_type;location;lat;lon;timestamp;temperature;humidity
52459;DHT22;38372;52.902;6.024;2023-03-01T00:01:59;-0.50;99.90
52459;DHT22;38372;52.902;6.024;2023-03-01T00:04:25;-0.50;99.90
52459;DHT22;38372;52.902;6.024;2023-03-01T00:06:51;-0.50;99.90
52459;DHT22;38372;52.902;6.024;2023-03-01T00:09:17;-0.50;99.90
52459;DHT22;38372;52.902;6.024;2023-03-01T00:11:43;-0.50;99.90
52459;DHT22;38372;52.902;6.024;2023-03-01T00:14:09;-0.60;99.90
52459;DHT22;38372;52.902;6.024;2023-03-01T00:16:40;-0.50;99.90
52459;DHT22;38372;52.902;6.024;2023-03-01T00:19:08;-0.60;99.90
52459;DHT22;38372;52.902;6.024;2023-03-01T00:21:35;-0.60;99.90
52459;DHT22;38372;52.902;6.024;2023-03-01T00:24:01;-0.70;99.90
52459;DHT22;38372;52.902;6.024;2023-03-01T00:26:28;-0.70;99.90
52459;DHT22;38372;52.902;6.024;2023-03-01T00:28:54;-0.70;99.90
52459;DHT22;38372;52.902;6.024;2023-03-01T00:31:25;-0.80;99.90
52459;DHT22;38372;52.902;6.024;2023-03-01T00:33:56;-0.80;99.90
52459;DHT22;38372;52.902;6.024;2023-03-01T00:36:25;-0.80;99.90
52459;DHT22;38372;52.902;6.024;2023-03-01T00:38:51;-0.90;99.90
52459;DHT22;38372;52.902;6.024;2023-03-01T00:41:18;-0.80;99.90
52459;DHT22;38372;52.902;6.024;2023-03-01T00:43:45;-0.80;99.90
52459;DHT22;38372;52.902;6.024;2023-03-01T00:46:16;-0.80;99.90
52459;DHT22;38372;52.902;6.024;2023-03-01T00:48:43;-0.90;99.90
52459;DHT22;38372;52.902;6.024;2023-03-01T00:51:15;-0.90;99.90
52459;DHT22;38372;52.902;6.024;2023-03-01T00:53:42;-0.90;99.90
52459;DHT22;38372;52.902;6.024;2023-03-01T00:56:10;-0.90;99.90
52459;DHT22;38372;52.902;6.024;2023-03-01T00:58:39;-0.90;99.90
52459;DHT22;38372;52.902;6.024;2023-03-01T01:01:14;-1.00;99.90
52459;DHT22;38372;52.902;6.024;2023-03-01T01:03:54;-1.00;99.90
52459;DHT22;38372;52.902;6.024;2023-03-01T01:06:25;-1.00;99.90
52459;DHT22;38372;52.902;6.024;2023-03-01T01:08:53;-1.10;99.90
52459;DHT22;38372;52.902;6.024;2023-03-01T01:11:21;-1.10;99.90
52459;DHT22;38372;52.902;6.024;2023-03-01T01:13:47;-1.20;99.90
52459;DHT22;38372;52.902;6.024;2023-03-01T01:16:14;-1.20;99.90
52459;DHT22;38372;52.902;6.024;2023-03-01T01:18:40;-1.30;99.90
52459;DHT22;38372;52.902;6.024;2023-03-01T01:21:09;-1.30;99.90
52459;DHT22;38372;52.902;6.024;2023-03-01T01:23:36;-1.30;99.90
52459;DHT22;38372;52.902;6.024;2023-03-01T01:26:11;-1.40;99.90
52459;DHT22;38372;52.902;6.024;2023-03-01T01:28:37;-1.40;99.90
52459;DHT22;38372;52.902;6.024;2023-03-01T01:31:04;-1.50;99.90
52459;DHT22;38372;52.902;6.024;2023-03-01T01:33:30;-1.60;99.90
52459;DHT22;38372;52.902;6.024;2023-03-01T01:35:56;-1.60;99.90
52459;DHT22;38372;52.902;6.024;2023-03-01T01:38:22;-1.60;99.90
52459;DHT22;38372;52.902;6.024;2023-03-01T01:40:49;-1.70;99.90
52459;DHT22;38372;52.902;6.024;2023-03-01T01:45:46;-1.70;99.90
52459;DHT22;38372;52.902;6.024;2023-03-01T01:48:16;-1.80;99.90
52459;DHT22;38372;52.902;6.024;2023-03-01T01:50:44;-1.80;99.90
52459;DHT22;38372;52.902;6.024;2023-03-01T01:53:16;-1.90;99.90
52459;DHT22;38372;52.902;6.024;2023-03-01T01:55:52;-1.80;99.90
52459;DHT22;38372;52.902;6.024;2023-03-01T01:58:20;-1.80;99.90
52459;DHT22;38372;52.902;6.024;2023-03-01T02:00:47;-1.80;99.90
52459;DHT22;38372;52.902;6.024;2023-03-01T02:03:18;-1.80;99.90
52459;DHT22;38372;52.902;6.024;2023-03-01T02:05:55;-1.80;99.90
52459;DHT22;38372;52.902;6.024;2023-03-01T02:08:25;-1.80;99.90
52459;DHT22;38372;52.902;6.024;2023-03-01T02:10:53;-1.80;99.90
52459;DHT22;38372;52.902;6.024;2023-03-01T02:13:20;-1.90;99.90
52459;DHT22;38372;52.902;6.024;2023-03-01T02:15:46;-1.90;99.90
52459;DHT22;38372;52.902;6.024;2023-03-01T02:18:16;-1.90;99.90
52459;DHT22;38372;52.902;6.024;2023-03-01T02:23:23;-2.00;99.90
52459;DHT22;38372;52.902;6.024;2023-03-01T02:26:03;-2.00;99.90
52459;DHT22;38372;52.902;6.024;2023-03-01T02:28:37;-2.00;99.90
52459;DHT22;38372;52.902;6.024;2023-03-01T02:31:09;-2.00;99.90
52459;DHT22;38372;52.902;6.024;2023-03-01T02:33:54;-2.00;99.90
52459;DHT22;38372;52.902;6.024;2023-03-01T02:36:25;-2.00;99.90
52459;DHT22;38372;52.902;6.024;2023-03-01T02:38:55;-2.00;99.90
52459;DHT22;38372;52.902;6.024;2023-03-01T02:41:22;-2.10;99.90
52459;DHT22;38372;52.902;6.024;2023-03-01T02:43:49;-2.10;99.90
52459;DHT22;38372;52.902;6.024;2023-03-01T02:46:17;-2.20;99.90
52459;DHT22;38372;52.902;6.024;2023-03-01T02:48:45;-2.20;99.90
52459;DHT22;38372;52.902;6.024;2023-03-01T02:51:39;-2.20;99.90
52459;DHT22;38372;52.902;6.024;2023-03-01T02:54:10;-2.20;99.90
52459;DHT22;38372;52.902;6.024;2023-03-01T02:56:37;-2.20;99.90
52459;DHT22;38372;52.902;6.024;2023-03-01T02:59:03;-2.30;99.90
52459;DHT22;38372;52.902;6.024;2023-03-01T03:01:29;-2.20;99.90
52459;DHT22;38372;52.902;6.024;2023-03-01T03:04:05;-2.20;99.90
52459;DHT22;38372;52.902;6.024;2023-03-01T03:06:31;-2.20;99.90
52459;DHT22;38372;52.902;6.024;2023-03-01T03:08:58;-2.20;99.90
52459;DHT22;38372;52.902;6.024;2023-03-01T03:11:24;-2.20;99.90
52459;DHT22;38372;52.902;6.024;2023-03-01T03:13:50;-2.20;99.90
52459;DHT22;38372;52.902;6.024;2023-03-01T03:16:16;-2.20;99.90
52459;DHT22;38372;52.902;6.024;2023-03-01T03:18:42;-2.20;99.90
52459;DHT22;38372;52.902;6.024;2023-03-01T03:21:09;-2.20;99.90
52459;DHT22;38372;52.902;6.024;2023-03-01T03:23:36;-2.20;99.90
52459;DHT22;38372;52.902;6.024;2023-03-01T03:26:03;-2.20;99.90
52459;DHT22;38372;52.902;6.024;2023-03-01T03:28:32;-2.20;99.90
52459;DHT22;38372;52.902;6.024;2023-03-01T03:30:58;-2.20;99.90
52459;DHT22;38372;52.902;6.024;2023-03-01T03:33:30;-2.10;99.90
52459;DHT22;38372;52.902;6.024;2023-03-01T03:35:55;-2.10;99.90
52459;DHT22;38372;52.902;6.024;2023-03-01T03:38:22;-2.00;99.90
52459;DHT22;38372;52.902;6.024;2023-03-01T03:40:59;-2.00;99.90
52459;DHT22;38372;52.902;6.024;2023-03-01T03:43:28;-2.00;99.90
52459;DHT22;38372;52.902;6.024;2023-03-01T03:45:54;-2.00;99.90
52459;DHT22;38372;52.902;6.024;2023-03-01T03:48:22;-2.00;99.90
52459;DHT22;38372;52.902;6.024;2023-03-01T03:50:55;-2.10;99.90
52459;DHT22;38372;52.902;6.024;2023-03-01T03:53:24;-2.10;99.90
52459;DHT22;38372;52.902;6.024;2023-03-01T03:55:50;-2.10;99.90
52459;DHT22;38372;52.902;6.024;2023-03-01T03:58:19;-2.10;99.90
52459;DHT22;38372;52.902;6.024;2023-03-01T04:00:46;-2.10;99.90
52459;DHT22;38372;52.902;6.024;2023-03-01T04:03:15;-2.20;99.90
52459;DHT22;38372;52.902;6.024;2023-03-01T04:05:41;-2.20;99.90
52459;DHT22;38372;52.902;6.024;2023-03-01T04:08:08;-2.20;99.90
52459;DHT22;38372;52.902;6.024;2023-03-01T04:10:39;-2.20;99.90
52459;DHT22;38372;52.902;6.024;2023-03-01T04:13:07;-2.30;99.90
52459;DHT22;38372;52.902;6.024;2023-03-01T04:15:34;-2.30;99.90
52459;DHT22;38372;52.902;6.024;2023-03-01T04:18:00;-2.40;99.90
52459;DHT22;38372;52.902;6.024;2023-03-01T04:20:31;-2.40;99.90
52459;DHT22;38372;52.902;6.024;2023-03-01T04:23:08;-2.40;99.90
52459;DHT22;38372;52.902;6.024;2023-03-01T04:25:58;-2.40;99.90
52459;DHT22;38372;52.902;6.024;2023-03-01T04:28:28;-2.40;99.90
52459;DHT22;38372;52.902;6.024;2023-03-01T04:30:55;-2.50;99.90
52459;DHT22;38372;52.902;6.024;2023-03-01T04:33:21;-2.50;99.90
52459;DHT22;38372;52.902;6.024;2023-03-01T04:35:47;-2.50;99.90
52459;DHT22;38372;52.902;6.024;2023-03-01T04:38:17;-2.50;99.90
52459;DHT22;38372;52.902;6.024;2023-03-01T04:40:43;-2.50;99.90
52459;DHT22;38372;52.902;6.024;2023-03-01T04:43:10;-2.60;99.90
52459;DHT22;38372;52.902;6.024;2023-03-01T04:45:36;-2.60;99.90
52459;DHT22;38372;52.902;6.024;2023-03-01T04:48:03;-2.60;99.90
52459;DHT22;38372;52.902;6.024;2023-03-01T04:50:29;-2.70;99.90
52459;DHT22;38372;52.902;6.024;2023-03-01T04:52:55;-2.70;99.90
52459;DHT22;38372;52.902;6.024;2023-03-01T04:55:25;-2.70;99.90
52459;DHT22;38372;52.902;6.024;2023-03-01T04:57:51;-2.70;99.90
52459;DHT22;38372;52.902;6.024;2023-03-01T05:00:18;-2.70;99.90
52459;DHT22;38372;52.902;6.024;2023-03-01T05:02:54;-2.80;99.90
52459;DHT22;38372;52.902;6.024;2023-03-01T05:05:33;-2.80;99.90
52459;DHT22;38372;52.902;6.024;2023-03-01T05:08:01;-2.80;99.90
52459;DHT22;38372;52.902;6.024;2023-03-01T05:10:28;-2.80;99.90
52459;DHT22;38372;52.902;6.024;2023-03-01T05:12:59;-2.90;99.90
52459;DHT22;38372;52.902;6.024;2023-03-01T05:15:26;-3.00;99.90
52459;DHT22;38372;52.902;6.024;2023-03-01T05:17:54;-3.00;99.90
52459;DHT22;38372;52.902;6.024;2023-03-01T05:20:20;-3.00;99.90
52459;DHT22;38372;52.902;6.024;2023-03-01T05:22:50;-3.10;99.90
52459;DHT22;38372;52.902;6.024;2023-03-01T05:25:16;-3.20;99.90
52459;DHT22;38372;52.902;6.024;2023-03-01T05:27:42;-3.30;99.90
52459;DHT22;38372;52.902;6.024;2023-03-01T05:30:08;-3.30;99.90
52459;DHT22;38372;52.902;6.024;2023-03-01T05:32:46;-3.40;99.90
52459;DHT22;38372;52.902;6.024;2023-03-01T05:35:14;-3.40;99.90
52459;DHT22;38372;52.902;6.024;2023-03-01T05:37:41;-3.40;99.90
52459;DHT22;38372;52.902;6.024;2023-03-01T05:40:13;-3.50;99.90
52459;DHT22;38372;52.902;6.024;2023-03-01T05:42:55;-3.50;99.90
52459;DHT22;38372;52.902;6.024;2023-03-01T05:45:23;-3.60;99.90
52459;DHT22;38372;52.902;6.024;2023-03-01T05:47:50;-3.60;99.90
52459;DHT22;38372;52.902;6.024;2023-03-01T05:50:22;-3.60;99.90
52459;DHT22;38372;52.902;6.024;2023-03-01T05:52:50;-3.60;99.90
52459;DHT22;38372;52.902;6.024;2023-03-01T05:55:17;-3.70;99.90
52459;DHT22;38372;52.902;6.024;2023-03-01T05:57:44;-3.70;99.90
52459;DHT22;38372;52.902;6.024;2023-03-01T06:00:11;-3.70;99.90
52459;DHT22;38372;52.902;6.024;2023-03-01T06:02:38;-3.70;99.90
52459;DHT22;38372;52.902;6.024;2023-03-01T06:05:05;-3.80;99.90
52459;DHT22;38372;52.902;6.024;2023-03-01T06:07:32;-3.80;99.90
52459;DHT22;38372;52.902;6.024;2023-03-01T06:09:57;-3.80;99.90
52459;DHT22;38372;52.902;6.024;2023-03-01T06:12:23;-3.80;99.90
52459;DHT22;38372;52.902;6.024;2023-03-01T06:14:49;-3.80;99.90
52459;DHT22;38372;52.902;6.024;2023-03-01T06:17:15;-3.80;99.90
52459;DHT22;38372;52.902;6.024;2023-03-01T06:19:41;-3.80;99.90
52459;DHT22;38372;52.902;6.024;2023-03-01T06:22:07;-3.90;99.90
52459;DHT22;38372;52.902;6.024;2023-03-01T06:24:34;-3.80;99.90
52459;DHT22;38372;52.902;6.024;2023-03-01T06:26:59;-3.80;99.90
52459;DHT22;38372;52.902;6.024;2023-03-01T06:29:25;-3.80;99.90
52459;DHT22;38372;52.902;6.024;2023-03-01T06:31:51;-3.80;99.90
52459;DHT22;38372;52.902;6.024;2023-03-01T06:34:17;-3.80;99.90
52459;DHT22;38372;52.902;6.024;2023-03-01T06:36:43;-3.80;99.90
52459;DHT22;38372;52.902;6.024;2023-03-01T06:39:08;-3.80;99.90
52459;DHT22;38372;52.902;6.024;2023-03-01T06:41:34;-3.80;99.90
52459;DHT22;38372;52.902;6.024;2023-03-01T06:44:00;-3.70;99.90
52459;DHT22;38372;52.902;6.024;2023-03-01T06:46:26;-3.70;99.90
52459;DHT22;38372;52.902;6.024;2023-03-01T06:48:52;-3.70;99.90
52459;DHT22;38372;52.902;6.024;2023-03-01T06:51:17;-3.60;99.90
52459;DHT22;38372;52.902;6.024;2023-03-01T06:53:45;-3.60;99.90
52459;DHT22;38372;52.902;6.024;2023-03-01T06:56:11;-3.60;99.90
52459;DHT22;38372;52.902;6.024;2023-03-01T06:58:41;-3.50;99.90
52459;DHT22;38372;52.902;6.024;2023-03-01T07:01:08;-3.50;99.90
52459;DHT22;38372;52.902;6.024;2023-03-01T07:03:37;-3.50;99.90
52459;DHT22;38372;52.902;6.024;2023-03-01T07:06:03;-3.40;99.90
52459;DHT22;38372;52.902;6.024;2023-03-01T07:08:29;-3.30;99.90
52459;DHT22;38372;52.902;6.024;2023-03-01T07:10:58;-3.30;99.90
52459;DHT22;38372;52.902;6.024;2023-03-01T07:13:25;-3.20;99.90
52459;DHT22;38372;52.902;6.024;2023-03-01T07:15:51;-3.20;99.90
52459;DHT22;38372;52.902;6.024;2023-03-01T07:18:18;-3.10;99.90
52459;DHT22;38372;52.902;6.024;2023-03-01T07:20:44;-3.10;99.90
52459;DHT22;38372;52.902;6.024;2023-03-01T07:23:10;-3.00;99.90
52459;DHT22;38372;52.902;6.024;2023-03-01T07:25:36;-2.90;99.90
52459;DHT22;38372;52.902;6.024;2023-03-01T07:28:02;-2.80;99.90
52459;DHT22;38372;52.902;6.024;2023-03-01T07:30:29;-2.70;99.90
52459;DHT22;38372;52.902;6.024;2023-03-01T07:32:56;-2.60;99.90
52459;DHT22;38372;52.902;6.024;2023-03-01T07:35:24;-2.60;99.90
52459;DHT22;38372;52.902;6.024;2023-03-01T07:37:50;-2.50;99.90
52459;DHT22;38372;52.902;6.024;2023-03-01T07:40:17;-2.40;99.90
52459;DHT22;38372;52.902;6.024;2023-03-01T07:42:44;-2.30;99.90
52459;DHT22;38372;52.902;6.024;2023-03-01T07:45:10;-2.20;99.90
52459;DHT22;38372;52.902;6.024;2023-03-01T07:47:36;-2.10;99.90
52459;DHT22;38372;52.902;6.024;2023-03-01T07:50:03;-2.00;99.90
52459;DHT22;38372;52.902;6.024;2023-03-01T07:52:29;-1.90;99.90
52459;DHT22;38372;52.902;6.024;2023-03-01T07:54:56;-1.80;99.90
52459;DHT22;38372;52.902;6.024;2023-03-01T07:57:23;-1.60;99.90
52459;DHT22;38372;52.902;6.024;2023-03-01T07:59:49;-1.50;99.90
52459;DHT22;38372;52.902;6.024;2023-03-01T08:02:14;-1.40;99.90
52459;DHT22;38372;52.902;6.024;2023-03-01T08:04:41;-1.20;99.90
52459;DHT22;38372;52.902;6.024;2023-03-01T08:07:08;-1.10;99.90
52459;DHT22;38372;52.902;6.024;2023-03-01T08:09:37;-0.90;99.90
52459;DHT22;38372;52.902;6.024;2023-03-01T08:12:04;-0.70;99.90
52459;DHT22;38372;52.902;6.024;2023-03-01T08:14:31;-0.40;99.90
52459;DHT22;38372;52.902;6.024;2023-03-01T08:16:57;-0.20;99.90
52459;DHT22;38372;52.902;6.024;2023-03-01T08:19:23;0.30;99.90
52459;DHT22;38372;52.902;6.024;2023-03-01T08:21:50;0.70;99.90
52459;DHT22;38372;52.902;6.024;2023-03-01T08:24:16;1.20;99.90
52459;DHT22;38372;52.902;6.024;2023-03-01T08:26:42;1.90;99.90
52459;DHT22;38372;52.902;6.024;2023-03-01T08:29:07;2.50;99.90
52459;DHT22;38372;52.902;6.024;2023-03-01T08:31:39;3.00;99.90
52459;DHT22;38372;52.902;6.024;2023-03-01T08:34:08;3.60;99.90
52459;DHT22;38372;52.902;6.024;2023-03-01T08:36:39;4.30;99.90
52459;DHT22;38372;52.902;6.024;2023-03-01T08:39:07;4.80;99.90
52459;DHT22;38372;52.902;6.024;2023-03-01T08:41:36;5.30;99.90
52459;DHT22;38372;52.902;6.024;2023-03-01T08:44:02;5.90;99.90
52459;DHT22;38372;52.902;6.024;2023-03-01T08:46:39;6.50;99.90
52459;DHT22;38372;52.902;6.024;2023-03-01T08:49:07;7.00;99.90
52459;DHT22;38372;52.902;6.024;2023-03-01T08:51:34;7.50;99.90
52459;DHT22;38372;52.902;6.024;2023-03-01T08:54:07;8.30;99.90
52459;DHT22;38372;52.902;6.024;2023-03-01T08:56:35;9.10;99.90
52459;DHT22;38372;52.902;6.024;2023-03-01T08:59:01;9.60;99.90
52459;DHT22;38372;52.902;6.024;2023-03-01T09:01:29;10.10;99.90
52459;DHT22;38372;52.902;6.024;2023-03-01T09:03:55;10.50;99.90
52459;DHT22;38372;52.902;6.024;2023-03-01T09:06:21;10.80;99.90
52459;DHT22;38372;52.902;6.024;2023-03-01T09:08:48;11.20;99.90
52459;DHT22;38372;52.902;6.024;2023-03-01T09:11:18;11.30;99.90
52459;DHT22;38372;52.902;6.024;2023-03-01T09:13:45;11.40;99.90
52459;DHT22;38372;52.902;6.024;2023-03-01T09:16:13;11.50;99.90
52459;DHT22;38372;52.902;6.024;2023-03-01T09:18:41;11.70;99.90
52459;DHT22;38372;52.902;6.024;2023-03-01T09:21:12;11.90;99.90
52459;DHT22;38372;52.902;6.024;2023-03-01T09:23:45;12.20;99.90
52459;DHT22;38372;52.902;6.024;2023-03-01T09:26:14;12.30;99.90
52459;DHT22;38372;52.902;6.024;2023-03-01T09:28:42;12.10;99.90
52459;DHT22;38372;52.902;6.024;2023-03-01T09:31:08;11.80;99.90
52459;DHT22;38372;52.902;6.024;2023-03-01T09:33:34;11.60;99.90
52459;DHT22;38372;52.902;6.024;2023-03-01T09:36:05;11.80;99.90
52459;DHT22;38372;52.902;6.024;2023-03-01T09:38:33;12.10;99.90
52459;DHT22;38372;52.902;6.024;2023-03-01T09:41:00;12.30;99.90
52459;DHT22;38372;52.902;6.024;2023-03-01T09:43:40;12.30;99.90
52459;DHT22;38372;52.902;6.024;2023-03-01T09:46:10;12.60;99.90
52459;DHT22;38372;52.902;6.024;2023-03-01T09:48:55;12.80;99.90
52459;DHT22;38372;52.902;6.024;2023-03-01T09:51:32;12.60;99.90
52459;DHT22;38372;52.902;6.024;2023-03-01T09:54:00;12.50;99.90
52459;DHT22;38372;52.902;6.024;2023-03-01T09:59:27;13.20;99.90
52459;DHT22;38372;52.902;6.024;2023-03-01T10:04:47;13.60;99.90
52459;DHT22;38372;52.902;6.024;2023-03-01T10:07:30;14.30;99.90
52459;DHT22;38372;52.902;6.024;2023-03-01T10:09:58;15.00;99.90
52459;DHT22;38372;52.902;6.024;2023-03-01T10:12:35;15.50;99.90
52459;DHT22;38372;52.902;6.024;2023-03-01T10:15:18;15.90;99.90
52459;DHT22;38372;52.902;6.024;2023-03-01T10:18:04;16.40;99.90
52459;DHT22;38372;52.902;6.024;2023-03-01T10:20:53;16.70;97.70
52459;DHT22;38372;52.902;6.024;2023-03-01T10:23:19;16.80;96.40
52459;DHT22;38372;52.902;6.024;2023-03-01T10:28:36;17.00;95.30
52459;DHT22;38372;52.902;6.024;2023-03-01T10:31:13;17.10;93.70
52459;DHT22;38372;52.902;6.024;2023-03-01T10:33:41;17.30;93.30
52459;DHT22;38372;52.902;6.024;2023-03-01T10:36:07;17.40;93.50
52459;DHT22;38372;52.902;6.024;2023-03-01T10:38:52;17.60;92.30
52459;DHT22;38372;52.902;6.024;2023-03-01T10:41:20;17.80;89.50
52459;DHT22;38372;52.902;6.024;2023-03-01T10:43:58;17.50;90.00
52459;DHT22;38372;52.902;6.024;2023-03-01T10:46:31;17.20;87.30
52459;DHT22;38372;52.902;6.024;2023-03-01T10:49:19;16.70;82.10
52459;DHT22;38372;52.902;6.024;2023-03-01T10:51:47;16.20;82.60
52459;DHT22;38372;52.902;6.024;2023-03-01T10:54:30;15.90;81.50
52459;DHT22;38372;52.902;6.024;2023-03-01T10:56:58;15.70;82.90
52459;DHT22;38372;52.902;6.024;2023-03-01T10:59:28;15.70;84.80
52459;DHT22;38372;52.902;6.024;2023-03-01T11:02:17;16.20;85.00
52459;DHT22;38372;52.902;6.024;2023-03-01T11:07:22;16.40;82.00
52459;DHT22;38372;52.902;6.024;2023-03-01T11:09:48;16.10;79.00
52459;DHT22;38372;52.902;6.024;2023-03-01T11:12:16;15.80;75.60
52459;DHT22;38372;52.902;6.024;2023-03-01T11:14:58;15.80;81.20
52459;DHT22;38372;52.902;6.024;2023-03-01T11:17:27;16.00;78.70
52459;DHT22;38372;52.902;6.024;2023-03-01T11:22:50;15.60;76.40
52459;DHT22;38372;52.902;6.024;2023-03-01T11:25:20;15.80;79.30
52459;DHT22;38372;52.902;6.024;2023-03-01T11:27:49;16.00;80.00
52459;DHT22;38372;52.902;6.024;2023-03-01T11:30:23;15.80;78.90
52459;DHT22;38372;52.902;6.024;2023-03-01T11:33:03;15.70;78.80
52459;DHT22;38372;52.902;6.024;2023-03-01T11:35:30;16.00;80.90
52459;DHT22;38372;52.902;6.024;2023-03-01T11:40:47;16.30;76.10
52459;DHT22;38372;52.902;6.024;2023-03-01T11:49:02;14.70;74.80
52459;DHT22;38372;52.902;6.024;2023-03-01T11:52:01;14.50;76.40
52459;DHT22;38372;52.902;6.024;2023-03-01T11:54:49;14.90;80.20
52459;DHT22;38372;52.902;6.024;2023-03-01T12:03:14;15.50;77.70
52459;DHT22;38372;52.902;6.024;2023-03-01T12:20:23;15.00;73.90
52459;DHT22;38372;52.902;6.024;2023-03-01T12:26:02;13.40;75.50
52459;DHT22;38372;52.902;6.024;2023-03-01T12:43:08;12.20;80.70
52459;DHT22;38372;52.902;6.024;2023-03-01T12:48:28;11.80;80.20
52459;DHT22;38372;52.902;6.024;2023-03-01T12:51:01;12.00;81.30
52459;DHT22;38372;52.902;6.024;2023-03-01T12:53:36;12.20;80.00
52459;DHT22;38372;52.902;6.024;2023-03-01T12:56:06;12.40;81.10
52459;DHT22;38372;52.902;6.024;2023-03-01T13:06:40;13.00;79.90
52459;DHT22;38372;52.902;6.024;2023-03-01T13:09:19;13.40;80.30
52459;DHT22;38372;52.902;6.024;2023-03-01T13:11:49;13.70;80.50
52459;DHT22;38372;52.902;6.024;2023-03-01T13:14:34;13.70;79.40
52459;DHT22;38372;52.902;6.024;2023-03-01T13:17:01;13.60;79.90
52459;DHT22;38372;52.902;6.024;2023-03-01T13:19:29;13.50;80.90
52459;DHT22;38372;52.902;6.024;2023-03-01T13:21:56;13.10;80.80
52459;DHT22;38372;52.902;6.024;2023-03-01T13:27:21;12.70;81.40
52459;DHT22;38372;52.902;6.024;2023-03-01T13:29:54;12.70;79.10
52459;DHT22;38372;52.902;6.024;2023-03-01T13:34:53;13.10;81.30
52459;DHT22;38372;52.902;6.024;2023-03-01T13:37:35;13.00;80.80
52459;DHT22;38372;52.902;6.024;2023-03-01T13:42:54;12.30;80.90
52459;DHT22;38372;52.902;6.024;2023-03-01T13:45:35;11.70;80.70
52459;DHT22;38372;52.902;6.024;2023-03-01T13:48:26;11.30;82.40
52459;DHT22;38372;52.902;6.024;2023-03-01T13:51:01;11.10;83.60
52459;DHT22;38372;52.902;6.024;2023-03-01T13:53:33;10.90;84.90
52459;DHT22;38372;52.902;6.024;2023-03-01T13:56:10;10.80;85.80
52459;DHT22;38372;52.902;6.024;2023-03-01T13:58:53;10.60;87.10
52459;DHT22;38372;52.902;6.024;2023-03-01T14:01:35;10.60;87.50
52459;DHT22;38372;52.902;6.024;2023-03-01T14:04:03;10.80;87.30
52459;DHT22;38372;52.902;6.024;2023-03-01T14:06:32;10.90;86.30
52459;DHT22;38372;52.902;6.024;2023-03-01T14:09:26;10.90;84.60
52459;DHT22;38372;52.902;6.024;2023-03-01T14:12:32;10.80;83.50
52459;DHT22;38372;52.902;6.024;2023-03-01T14:20:40;9.80;84.60
52459;DHT22;38372;52.902;6.024;2023-03-01T14:23:17;9.70;85.10
52459;DHT22;38372;52.902;6.024;2023-03-01T14:25:53;9.50;86.00
52459;DHT22;38372;52.902;6.024;2023-03-01T14:28:28;9.50;88.10
52459;DHT22;38372;52.902;6.024;2023-03-01T14:30:58;9.60;89.00
52459;DHT22;38372;52.902;6.024;2023-03-01T14:33:30;9.80;89.70
52459;DHT22;38372;52.902;6.024;2023-03-01T14:35:59;10.00;90.20
52459;DHT22;38372;52.902;6.024;2023-03-01T14:38:34;10.60;90.50
52459;DHT22;38372;52.902;6.024;2023-03-01T14:43:41;10.90;90.20
52459;DHT22;38372;52.902;6.024;2023-03-01T14:46:21;10.80;90.20
52459;DHT22;38372;52.902;6.024;2023-03-01T14:48:51;10.70;89.30
52459;DHT22;38372;52.902;6.024;2023-03-01T14:51:18;10.80;89.20
52459;DHT22;38372;52.902;6.024;2023-03-01T14:53:44;10.70;87.00
52459;DHT22;38372;52.902;6.024;2023-03-01T14:56:15;10.80;87.80
52459;DHT22;38372;52.902;6.024;2023-03-01T14:58:43;11.30;87.20
52459;DHT22;38372;52.902;6.024;2023-03-01T15:01:15;11.40;85.50
52459;DHT22;38372;52.902;6.024;2023-03-01T15:03:49;11.10;86.60
52459;DHT22;38372;52.902;6.024;2023-03-01T15:06:19;11.30;85.80
52459;DHT22;38372;52.902;6.024;2023-03-01T15:08:49;11.50;84.90
52459;DHT22;38372;52.902;6.024;2023-03-01T15:13:41;11.00;85.10
52459;DHT22;38372;52.902;6.024;2023-03-01T15:16:13;11.20;85.20
52459;DHT22;38372;52.902;6.024;2023-03-01T15:18:49;11.50;85.50
52459;DHT22;38372;52.902;6.024;2023-03-01T15:21:24;11.90;85.50
52459;DHT22;38372;52.902;6.024;2023-03-01T15:24:06;12.30;83.50
52459;DHT22;38372;52.902;6.024;2023-03-01T15:26:45;12.50;82.30
52459;DHT22;38372;52.902;6.024;2023-03-01T15:29:20;12.30;82.50
52459;DHT22;38372;52.902;6.024;2023-03-01T15:34:53;11.50;85.20
52459;DHT22;38372;52.902;6.024;2023-03-01T15:37:44;10.70;86.80
52459;DHT22;38372;52.902;6.024;2023-03-01T15:43:00;10.10;90.10
52459;DHT22;38372;52.902;6.024;2023-03-01T15:45:28;10.20;90.60
52459;DHT22;38372;52.902;6.024;2023-03-01T15:48:01;10.30;90.70
52459;DHT22;38372;52.902;6.024;2023-03-01T15:50:31;10.60;90.40
52459;DHT22;38372;52.902;6.024;2023-03-01T15:53:04;10.60;90.10
52459;DHT22;38372;52.902;6.024;2023-03-01T15:55:32;10.80;90.30
52459;DHT22;38372;52.902;6.024;2023-03-01T15:58:05;11.40;90.10
52459;DHT22;38372;52.902;6.024;2023-03-01T16:00:32;11.80;88.70
52459;DHT22;38372;52.902;6.024;2023-03-01T16:02:58;11.60;88.30
52459;DHT22;38372;52.902;6.024;2023-03-01T16:05:31;11.10;89.80
52459;DHT22;38372;52.902;6.024;2023-03-01T16:07:57;10.80;90.20
52459;DHT22;38372;52.902;6.024;2023-03-01T16:10:23;10.30;90.60
52459;DHT22;38372;52.902;6.024;2023-03-01T16:12:50;9.90;91.30
52459;DHT22;38372;52.902;6.024;2023-03-01T16:17:48;9.20;92.40
52459;DHT22;38372;52.902;6.024;2023-03-01T16:20:14;8.80;92.90
52459;DHT22;38372;52.902;6.024;2023-03-01T16:22:45;8.50;93.40
52459;DHT22;38372;52.902;6.024;2023-03-01T16:25:16;8.20;94.00
52459;DHT22;38372;52.902;6.024;2023-03-01T16:27:43;8.00;94.70
52459;DHT22;38372;52.902;6.024;2023-03-01T16:30:11;7.80;95.80
52459;DHT22;38372;52.902;6.024;2023-03-01T16:32:41;7.60;96.60
52459;DHT22;38372;52.902;6.024;2023-03-01T16:35:09;7.40;97.40
52459;DHT22;38372;52.902;6.024;2023-03-01T16:37:35;7.30;98.00
52459;DHT22;38372;52.902;6.024;2023-03-01T16:40:04;7.20;98.60
52459;DHT22;38372;52.902;6.024;2023-03-01T16:42:35;7.10;99.40
52459;DHT22;38372;52.902;6.024;2023-03-01T16:45:00;7.00;99.90
52459;DHT22;38372;52.902;6.024;2023-03-01T16:47:28;6.80;99.90
52459;DHT22;38372;52.902;6.024;2023-03-01T16:49:54;6.70;99.90
52459;DHT22;38372;52.902;6.024;2023-03-01T16:52:21;6.60;99.90
52459;DHT22;38372;52.902;6.024;2023-03-01T16:54:47;6.40;99.90
52459;DHT22;38372;52.902;6.024;2023-03-01T16:57:13;6.20;99.90
52459;DHT22;38372;52.902;6.024;2023-03-01T16:59:39;6.10;99.90
52459;DHT22;38372;52.902;6.024;2023-03-01T17:02:08;5.90;99.90
52459;DHT22;38372;52.902;6.024;2023-03-01T17:04:36;5.80;99.90
52459;DHT22;38372;52.902;6.024;2023-03-01T17:07:02;5.70;99.90
52459;DHT22;38372;52.902;6.024;2023-03-01T17:09:28;5.60;99.90
52459;DHT22;38372;52.902;6.024;2023-03-01T17:11:53;5.50;99.90
52459;DHT22;38372;52.902;6.024;2023-03-01T17:14:20;5.50;99.90
52459;DHT22;38372;52.902;6.024;2023-03-01T17:16:46;5.40;99.90
52459;DHT22;38372;52.902;6.024;2023-03-01T17:19:12;5.30;99.90
52459;DHT22;38372;52.902;6.024;2023-03-01T17:21:43;5.20;99.90
52459;DHT22;38372;52.902;6.024;2023-03-01T17:24:09;5.10;99.90
52459;DHT22;38372;52.902;6.024;2023-03-01T17:26:35;5.00;99.90
52459;DHT22;38372;52.902;6.024;2023-03-01T17:29:01;4.90;99.90
52459;DHT22;38372;52.902;6.024;2023-03-01T17:31:33;4.80;99.90
52459;DHT22;38372;52.902;6.024;2023-03-01T17:33:59;4.60;99.90